sensor_id;sensor_type;location;lat;lon;timestamp;temperature;humidity
1680;DHT22;838;51.794;12.258;2022-12-07T00:01:33;4.60;53.10
1680;DHT22;838;51.794;12.258;2022-12-07T00:04:01;4.60;51.20
1680;DHT22;838;51.794;12.258;2022-12-07T00:06:37;4.50;53.90
1680;DHT22;838;51.794;12.258;2022-12-07T00:09:05;4.40;56.80
1680;DHT22;838;51.794;12.258;2022-12-07T00:11:32;4.30;58.50
1680;DHT22;838;51.794;12.258;2022-12-07T00:14:00;4.40;55.80
1680;DHT22;838;51.794;12.258;2022-12-07T00:16:28;4.50;57.40
1680;DHT22;838;51.794;12.258;2022-12-07T00:18:54;4.40;55.90
1680;DHT22;838;51.794;12.258;2022-12-07T00:21:25;4.60;57.20
1680;DHT22;838;51.794;12.258;2022-12-07T00:23:53;4.60;53.10
1680;DHT22;838;51.794;12.258;2022-12-07T00:26:30;4.60;53.90
1680;DHT22;838;51.794;12.258;2022-12-07T00:28:59;4.70;53.10
1680;DHT22;838;51.794;12.258;2022-12-07T00:31:31;4.40;54.90
1680;DHT22;838;51.794;12.258;2022-12-07T00:33:58;4.50;56.10
1680;DHT22;838;51.794;12.258;2022-12-07T00:36:25;4.60;54.90
1680;DHT22;838;51.794;12.258;2022-12-07T00:38:51;4.30;55.90
1680;DHT22;838;51.794;12.258;2022-12-07T00:41:22;4.10;59.00
1680;DHT22;838;51.794;12.258;2022-12-07T00:43:49;4.20;59.90
1680;DHT22;838;51.794;12.258;2022-12-07T00:46:15;4.30;57.70
1680;DHT22;838;51.794;12.258;2022-12-07T00:48:41;4.20;57.60
1680;DHT22;838;51.794;12.258;2022-12-07T00:51:08;4.10;57.40
1680;DHT22;838;51.794;12.258;2022-12-07T00:53:35;4.00;58.30
1680;DHT22;838;51.794;12.258;2022-12-07T00:56:07;4.00;58.70
1680;DHT22;838;51.794;12.258;2022-12-07T00:58:33;4.00;59.70
1680;DHT22;838;51.794;12.258;2022-12-07T01:01:00;4.20;58.60
1680;DHT22;838;51.794;12.258;2022-12-07T01:03:27;4.20;56.90
1680;DHT22;838;51.794;12.258;2022-12-07T01:05:54;4.10;55.40
1680;DHT22;838;51.794;12.258;2022-12-07T01:08:20;4.00;57.00
1680;DHT22;838;51.794;12.258;2022-12-07T01:10:47;4.00;58.10
1680;DHT22;838;51.794;12.258;2022-12-07T01:13:13;3.90;56.80
1680;DHT22;838;51.794;12.258;2022-12-07T01:15:42;3.80;59.00
1680;DHT22;838;51.794;12.258;2022-12-07T01:18:09;3.90;58.60
1680;DHT22;838;51.794;12.258;2022-12-07T01:20:35;4.10;59.20
1680;DHT22;838;51.794;12.258;2022-12-07T01:23:00;4.10;57.60
1680;DHT22;838;51.794;12.258;2022-12-07T01:25:26;4.10;57.80
1680;DHT22;838;51.794;12.258;2022-12-07T01:27:52;4.10;56.00
1680;DHT22;838;51.794;12.258;2022-12-07T01:30:18;4.10;55.90
1680;DHT22;838;51.794;12.258;2022-12-07T01:32:43;4.00;56.20
1680;DHT22;838;51.794;12.258;2022-12-07T01:35:09;3.80;58.00
1680;DHT22;838;51.794;12.258;2022-12-07T01:37:36;3.50;59.70
1680;DHT22;838;51.794;12.258;2022-12-07T01:40:04;3.50;62.10
1680;DHT22;838;51.794;12.258;2022-12-07T01:42:30;3.40;62.60
1680;DHT22;838;51.794;12.258;2022-12-07T01:48:01;3.40;66.80
1680;DHT22;838;51.794;12.258;2022-12-07T01:50:28;3.40;66.70
1680;DHT22;838;51.794;12.258;2022-12-07T01:52:59;3.40;67.20
1680;DHT22;838;51.794;12.258;2022-12-07T01:55:27;3.50;69.70
1680;DHT22;838;51.794;12.258;2022-12-07T01:57:54;3.40;71.60
1680;DHT22;838;51.794;12.258;2022-12-07T02:00:21;3.10;72.40
1680;DHT22;838;51.794;12.258;2022-12-07T02:02:51;3.20;72.60
1680;DHT22;838;51.794;12.258;2022-12-07T02:05:19;3.20;73.10
1680;DHT22;838;51.794;12.258;2022-12-07T02:07:47;3.20;75.00
1680;DHT22;838;51.794;12.258;2022-12-07T02:12:43;3.20;75.40
1680;DHT22;838;51.794;12.258;2022-12-07T02:15:10;3.30;73.40
1680;DHT22;838;51.794;12.258;2022-12-07T02:18:00;3.30;72.90
1680;DHT22;838;51.794;12.258;2022-12-07T02:21:15;3.30;72.50
1680;DHT22;838;51.794;12.258;2022-12-07T02:31:46;3.10;75.20
1680;DHT22;838;51.794;12.258;2022-12-07T02:34:44;3.00;75.40
1680;DHT22;838;51.794;12.258;2022-12-07T02:38:25;3.00;75.50
1680;DHT22;838;51.794;12.258;2022-12-07T02:40:30;3.10;77.00
1680;DHT22;838;51.794;12.258;2022-12-07T02:43:24;3.20;75.70
1680;DHT22;838;51.794;12.258;2022-12-07T02:45:54;3.10;74.60
1680;DHT22;838;51.794;12.258;2022-12-07T02:48:21;3.10;75.40
1680;DHT22;838;51.794;12.258;2022-12-07T02:50:52;3.00;73.70
1680;DHT22;838;51.794;12.258;2022-12-07T02:55:54;3.00;76.30
1680;DHT22;838;51.794;12.258;2022-12-07T02:58:48;3.00;75.80
1680;DHT22;838;51.794;12.258;2022-12-07T03:04:35;3.10;74.20
1680;DHT22;838;51.794;12.258;2022-12-07T03:10:00;3.10;76.30
1680;DHT22;838;51.794;12.258;2022-12-07T03:12:37;3.20;72.70
1680;DHT22;838;51.794;12.258;2022-12-07T03:15:14;3.10;74.80
1680;DHT22;838;51.794;12.258;2022-12-07T03:17:42;3.20;74.80
1680;DHT22;838;51.794;12.258;2022-12-07T03:20:13;3.20;74.20
1680;DHT22;838;51.794;12.258;2022-12-07T03:22:43;3.20;74.40
1680;DHT22;838;51.794;12.258;2022-12-07T03:25:13;3.20;72.40
1680;DHT22;838;51.794;12.258;2022-12-07T03:28:02;3.10;74.10
1680;DHT22;838;51.794;12.258;2022-12-07T03:30:44;3.00;74.90
1680;DHT22;838;51.794;12.258;2022-12-07T03:33:31;3.00;75.40
1680;DHT22;838;51.794;12.258;2022-12-07T03:36:21;3.10;77.00
1680;DHT22;838;51.794;12.258;2022-12-07T03:38:57;3.10;76.50
1680;DHT22;838;51.794;12.258;2022-12-07T03:41:29;3.30;77.30
1680;DHT22;838;51.794;12.258;2022-12-07T03:43:55;3.10;76.60
1680;DHT22;838;51.794;12.258;2022-12-07T03:51:44;3.10;77.00
1680;DHT22;838;51.794;12.258;2022-12-07T03:54:19;3.10;77.90
1680;DHT22;838;51.794;12.258;2022-12-07T03:56:47;3.20;78.40
1680;DHT22;838;51.794;12.258;2022-12-07T03:59:14;3.00;79.00
1680;DHT22;838;51.794;12.258;2022-12-07T04:01:47;3.10;79.70
1680;DHT22;838;51.794;12.258;2022-12-07T04:04:17;3.10;79.80
1680;DHT22;838;51.794;12.258;2022-12-07T04:06:42;3.10;80.10
1680;DHT22;838;51.794;12.258;2022-12-07T04:09:08;3.20;81.10
1680;DHT22;838;51.794;12.258;2022-12-07T04:11:34;3.00;82.30
1680;DHT22;838;51.794;12.258;2022-12-07T04:14:00;3.10;82.60
1680;DHT22;838;51.794;12.258;2022-12-07T04:16:47;3.00;83.20
1680;DHT22;838;51.794;12.258;2022-12-07T04:19:14;3.00;84.30
1680;DHT22;838;51.794;12.258;2022-12-07T04:21:40;3.00;85.10
1680;DHT22;838;51.794;12.258;2022-12-07T04:24:05;3.10;85.80
1680;DHT22;838;51.794;12.258;2022-12-07T04:26:31;3.20;85.90
1680;DHT22;838;51.794;12.258;2022-12-07T04:28:59;3.20;85.10
1680;DHT22;838;51.794;12.258;2022-12-07T04:31:25;3.20;84.90
1680;DHT22;838;51.794;12.258;2022-12-07T04:33:51;3.50;85.40
1680;DHT22;838;51.794;12.258;2022-12-07T04:36:16;3.20;85.70
1680;DHT22;838;51.794;12.258;2022-12-07T04:38:42;3.40;83.60
1680;DHT22;838;51.794;12.258;2022-12-07T04:41:09;3.40;82.80
1680;DHT22;838;51.794;12.258;2022-12-07T04:43:35;3.40;83.10
1680;DHT22;838;51.794;12.258;2022-12-07T04:46:02;3.40;82.80
1680;DHT22;838;51.794;12.258;2022-12-07T04:48:28;3.40;81.70
1680;DHT22;838;51.794;12.258;2022-12-07T04:50:55;3.40;82.80
1680;DHT22;838;51.794;12.258;2022-12-07T04:53:21;3.40;83.30
1680;DHT22;838;51.794;12.258;2022-12-07T04:55:47;3.60;83.10
1680;DHT22;838;51.794;12.258;2022-12-07T04:58:13;3.50;82.40
1680;DHT22;838;51.794;12.258;2022-12-07T05:00:40;3.40;83.60
1680;DHT22;838;51.794;12.258;2022-12-07T05:03:06;3.50;83.60
1680;DHT22;838;51.794;12.258;2022-12-07T05:05:32;3.70;84.20
1680;DHT22;838;51.794;12.258;2022-12-07T05:07:58;3.50;84.30
1680;DHT22;838;51.794;12.258;2022-12-07T05:10:24;3.50;84.10
1680;DHT22;838;51.794;12.258;2022-12-07T05:12:49;3.50;84.10
1680;DHT22;838;51.794;12.258;2022-12-07T05:15:15;3.60;84.80
1680;DHT22;838;51.794;12.258;2022-12-07T05:17:41;3.70;84.10
1680;DHT22;838;51.794;12.258;2022-12-07T05:20:08;3.70;83.20
1680;DHT22;838;51.794;12.258;2022-12-07T05:22:34;3.70;83.80
1680;DHT22;838;51.794;12.258;2022-12-07T05:24:59;3.70;84.20
1680;DHT22;838;51.794;12.258;2022-12-07T05:27:26;3.70;82.70
1680;DHT22;838;51.794;12.258;2022-12-07T05:29:52;3.70;83.50
1680;DHT22;838;51.794;12.258;2022-12-07T05:32:18;3.50;83.10
1680;DHT22;838;51.794;12.258;2022-12-07T05:34:44;3.90;82.90
1680;DHT22;838;51.794;12.258;2022-12-07T05:37:09;4.00;81.50
1680;DHT22;838;51.794;12.258;2022-12-07T05:39:35;4.10;82.00
1680;DHT22;838;51.794;12.258;2022-12-07T05:42:01;4.20;77.90
1680;DHT22;838;51.794;12.258;2022-12-07T05:44:47;4.20;78.90
1680;DHT22;838;51.794;12.258;2022-12-07T05:47:13;4.20;75.80
1680;DHT22;838;51.794;12.258;2022-12-07T05:49:42;4.30;78.80
1680;DHT22;838;51.794;12.258;2022-12-07T05:52:08;4.30;77.00
1680;DHT22;838;51.794;12.258;2022-12-07T05:54:34;4.40;76.20
1680;DHT22;838;51.794;12.258;2022-12-07T05:57:01;4.30;75.60
1680;DHT22;838;51.794;12.258;2022-12-07T05:59:27;4.20;77.90
1680;DHT22;838;51.794;12.258;2022-12-07T06:01:58;4.10;77.20
1680;DHT22;838;51.794;12.258;2022-12-07T06:04:26;4.20;78.20
1680;DHT22;838;51.794;12.258;2022-12-07T06:06:53;4.40;79.60
1680;DHT22;838;51.794;12.258;2022-12-07T06:09:20;4.50;78.20
1680;DHT22;838;51.794;12.258;2022-12-07T06:11:46;4.60;76.00
1680;DHT22;838;51.794;12.258;2022-12-07T06:14:30;4.60;76.10
1680;DHT22;838;51.794;12.258;2022-12-07T06:16:56;4.60;74.60
1680;DHT22;838;51.794;12.258;2022-12-07T06:19:22;4.60;74.10
1680;DHT22;838;51.794;12.258;2022-12-07T06:21:48;4.60;73.90
1680;DHT22;838;51.794;12.258;2022-12-07T06:24:15;4.50;72.90
1680;DHT22;838;51.794;12.258;2022-12-07T06:26:41;4.50;73.00
1680;DHT22;838;51.794;12.258;2022-12-07T06:29:07;4.50;74.30
1680;DHT22;838;51.794;12.258;2022-12-07T06:31:34;4.70;73.00
1680;DHT22;838;51.794;12.258;2022-12-07T06:34:02;4.70;71.60
1680;DHT22;838;51.794;12.258;2022-12-07T06:36:28;4.80;70.10
1680;DHT22;838;51.794;12.258;2022-12-07T06:38:54;4.90;67.90
1680;DHT22;838;51.794;12.258;2022-12-07T06:41:20;4.90;69.70
1680;DHT22;838;51.794;12.258;2022-12-07T06:43:46;4.90;69.20
1680;DHT22;838;51.794;12.258;2022-12-07T06:46:12;4.90;68.80
1680;DHT22;838;51.794;12.258;2022-12-07T06:48:37;5.00;68.90
1680;DHT22;838;51.794;12.258;2022-12-07T06:51:03;5.10;68.10
1680;DHT22;838;51.794;12.258;2022-12-07T06:53:29;5.20;64.10
1680;DHT22;838;51.794;12.258;2022-12-07T06:55:55;5.20;66.20
1680;DHT22;838;51.794;12.258;2022-12-07T06:58:20;5.20;64.90
1680;DHT22;838;51.794;12.258;2022-12-07T07:00:48;5.30;64.60
1680;DHT22;838;51.794;12.258;2022-12-07T07:03:14;5.20;66.20
1680;DHT22;838;51.794;12.258;2022-12-07T07:05:41;5.10;65.60
1680;DHT22;838;51.794;12.258;2022-12-07T07:08:07;4.90;68.40
1680;DHT22;838;51.794;12.258;2022-12-07T07:10:33;4.80;71.40
1680;DHT22;838;51.794;12.258;2022-12-07T07:12:59;4.80;72.90
1680;DHT22;838;51.794;12.258;2022-12-07T07:15:25;4.80;72.70
1680;DHT22;838;51.794;12.258;2022-12-07T07:17:50;4.80;74.20
1680;DHT22;838;51.794;12.258;2022-12-07T07:20:16;4.70;73.20
1680;DHT22;838;51.794;12.258;2022-12-07T07:22:42;4.70;73.70
1680;DHT22;838;51.794;12.258;2022-12-07T07:25:08;4.60;74.00
1680;DHT22;838;51.794;12.258;2022-12-07T07:27:33;4.70;74.50
1680;DHT22;838;51.794;12.258;2022-12-07T07:29:59;4.80;73.60
1680;DHT22;838;51.794;12.258;2022-12-07T07:32:25;4.90;71.50
1680;DHT22;838;51.794;12.258;2022-12-07T07:34:50;4.80;70.20
1680;DHT22;838;51.794;12.258;2022-12-07T07:37:16;4.80;71.70
1680;DHT22;838;51.794;12.258;2022-12-07T07:39:42;4.80;72.10
1680;DHT22;838;51.794;12.258;2022-12-07T07:42:08;4.90;71.80
1680;DHT22;838;51.794;12.258;2022-12-07T07:44:34;5.00;71.30
1680;DHT22;838;51.794;12.258;2022-12-07T07:47:00;5.10;68.90
1680;DHT22;838;51.794;12.258;2022-12-07T07:49:26;5.10;66.90
1680;DHT22;838;51.794;12.258;2022-12-07T07:51:52;5.00;67.40
1680;DHT22;838;51.794;12.258;2022-12-07T07:54:18;4.90;69.70
1680;DHT22;838;51.794;12.258;2022-12-07T07:56:43;4.90;70.20
1680;DHT22;838;51.794;12.258;2022-12-07T07:59:09;4.80;70.40
1680;DHT22;838;51.794;12.258;2022-12-07T08:01:35;4.80;71.70
1680;DHT22;838;51.794;12.258;2022-12-07T08:04:02;4.80;72.10
1680;DHT22;838;51.794;12.258;2022-12-07T08:06:27;4.90;71.10
1680;DHT22;838;51.794;12.258;2022-12-07T08:08:53;4.80;71.00
1680;DHT22;838;51.794;12.258;2022-12-07T08:11:19;4.80;71.90
1680;DHT22;838;51.794;12.258;2022-12-07T08:13:46;4.90;72.50
1680;DHT22;838;51.794;12.258;2022-12-07T08:16:15;5.00;71.40
1680;DHT22;838;51.794;12.258;2022-12-07T08:18:41;5.00;70.30
1680;DHT22;838;51.794;12.258;2022-12-07T08:21:10;5.10;70.50
1680;DHT22;838;51.794;12.258;2022-12-07T08:23:37;5.10;68.40
1680;DHT22;838;51.794;12.258;2022-12-07T08:26:05;5.10;69.50
1680;DHT22;838;51.794;12.258;2022-12-07T08:28:32;5.10;68.60
1680;DHT22;838;51.794;12.258;2022-12-07T08:31:02;5.30;69.60
1680;DHT22;838;51.794;12.258;2022-12-07T08:33:28;5.30;67.20
1680;DHT22;838;51.794;12.258;2022-12-07T08:35:54;5.20;67.60
1680;DHT22;838;51.794;12.258;2022-12-07T08:38:20;5.20;69.40
1680;DHT22;838;51.794;12.258;2022-12-07T08:40:56;5.20;69.90
1680;DHT22;838;51.794;12.258;2022-12-07T08:43:23;5.40;68.90
1680;DHT22;838;51.794;12.258;2022-12-07T08:48:50;5.40;66.70
1680;DHT22;838;51.794;12.258;2022-12-07T08:51:16;5.50;66.80
1680;DHT22;838;51.794;12.258;2022-12-07T08:53:42;5.30;66.00
1680;DHT22;838;51.794;12.258;2022-12-07T08:56:09;5.30;66.80
1680;DHT22;838;51.794;12.258;2022-12-07T08:58:36;5.30;67.30
1680;DHT22;838;51.794;12.258;2022-12-07T09:01:03;5.40;67.30
1680;DHT22;838;51.794;12.258;2022-12-07T09:03:30;5.30;67.20
1680;DHT22;838;51.794;12.258;2022-12-07T09:05:56;5.50;67.90
1680;DHT22;838;51.794;12.258;2022-12-07T09:08:36;5.60;64.80
1680;DHT22;838;51.794;12.258;2022-12-07T09:11:03;5.60;64.50
1680;DHT22;838;51.794;12.258;2022-12-07T09:13:29;5.70;63.50
1680;DHT22;838;51.794;12.258;2022-12-07T09:15:54;5.70;61.10
1680;DHT22;838;51.794;12.258;2022-12-07T09:18:20;5.70;60.40
1680;DHT22;838;51.794;12.258;2022-12-07T09:20:46;5.80;60.70
1680;DHT22;838;51.794;12.258;2022-12-07T09:23:12;5.90;58.30
1680;DHT22;838;51.794;12.258;2022-12-07T09:25:39;6.00;58.10
1680;DHT22;838;51.794;12.258;2022-12-07T09:28:04;6.00;55.70
1680;DHT22;838;51.794;12.258;2022-12-07T09:30:30;5.90;55.80
1680;DHT22;838;51.794;12.258;2022-12-07T09:32:57;5.90;53.90
1680;DHT22;838;51.794;12.258;2022-12-07T09:35:23;5.60;52.20
1680;DHT22;838;51.794;12.258;2022-12-07T09:37:49;5.50;52.90
1680;DHT22;838;51.794;12.258;2022-12-07T09:40:16;5.50;54.50
1680;DHT22;838;51.794;12.258;2022-12-07T09:42:47;5.40;54.90
1680;DHT22;838;51.794;12.258;2022-12-07T09:45:23;5.50;55.40
1680;DHT22;838;51.794;12.258;2022-12-07T09:47:50;5.40;55.40
1680;DHT22;838;51.794;12.258;2022-12-07T09:50:20;5.40;55.90
1680;DHT22;838;51.794;12.258;2022-12-07T09:52:47;5.30;56.80
1680;DHT22;838;51.794;12.258;2022-12-07T09:55:16;5.30;59.20
1680;DHT22;838;51.794;12.258;2022-12-07T09:57:45;5.40;59.30
1680;DHT22;838;51.794;12.258;2022-12-07T10:00:18;5.50;58.80
1680;DHT22;838;51.794;12.258;2022-12-07T10:02:57;5.40;60.10
1680;DHT22;838;51.794;12.258;2022-12-07T10:05:38;5.30;60.40
1680;DHT22;838;51.794;12.258;2022-12-07T10:08:07;5.40;63.10
1680;DHT22;838;51.794;12.258;2022-12-07T10:10:34;5.50;61.60
1680;DHT22;838;51.794;12.258;2022-12-07T10:13:04;5.40;62.10
1680;DHT22;838;51.794;12.258;2022-12-07T10:23:41;5.50;64.40
1680;DHT22;838;51.794;12.258;2022-12-07T10:26:27;5.50;63.70
1680;DHT22;838;51.794;12.258;2022-12-07T10:28:54;5.50;62.50
1680;DHT22;838;51.794;12.258;2022-12-07T10:31:22;5.60;64.40
1680;DHT22;838;51.794;12.258;2022-12-07T10:33:57;5.60;62.90
1680;DHT22;838;51.794;12.258;2022-12-07T10:36:37;5.60;64.20
1680;DHT22;838;51.794;12.258;2022-12-07T10:39:13;5.70;64.30
1680;DHT22;838;51.794;12.258;2022-12-07T10:42:00;5.80;64.20
1680;DHT22;838;51.794;12.258;2022-12-07T10:44:32;5.80;63.00
1680;DHT22;838;51.794;12.258;2022-12-07T10:49:36;5.80;65.20
1680;DHT22;838;51.794;12.258;2022-12-07T10:57:46;6.20;64.50
1680;DHT22;838;51.794;12.258;2022-12-07T11:00:20;6.40;62.00
1680;DHT22;838;51.794;12.258;2022-12-07T11:05:39;6.10;61.50
1680;DHT22;838;51.794;12.258;2022-12-07T11:08:18;6.20;63.60
1680;DHT22;838;51.794;12.258;2022-12-07T11:19:16;5.80;61.70
1680;DHT22;838;51.794;12.258;2022-12-07T11:22:25;5.70;63.40
1680;DHT22;838;51.794;12.258;2022-12-07T11:25:08;5.70;63.70
1680;DHT22;838;51.794;12.258;2022-12-07T11:27:57;5.80;62.60
1680;DHT22;838;51.794;12.258;2022-12-07T11:33:32;5.90;59.60
1680;DHT22;838;51.794;12.258;2022-12-07T11:39:11;6.00;56.60
1680;DHT22;838;51.794;12.258;2022-12-07T11:41:42;6.00;57.40
1680;DHT22;838;51.794;12.258;2022-12-07T11:44:30;6.00;55.10
1680;DHT22;838;51.794;12.258;2022-12-07T11:47:14;6.00;55.10
1680;DHT22;838;51.794;12.258;2022-12-07T11:49:54;6.00;55.10
1680;DHT22;838;51.794;12.258;2022-12-07T11:54:51;6.00;56.10
1680;DHT22;838;51.794;12.258;2022-12-07T11:57:24;5.90;55.90
1680;DHT22;838;51.794;12.258;2022-12-07T12:00:03;5.90;56.10
1680;DHT22;838;51.794;12.258;2022-12-07T12:02:41;5.80;58.00
1680;DHT22;838;51.794;12.258;2022-12-07T12:05:21;5.90;59.00
1680;DHT22;838;51.794;12.258;2022-12-07T12:07:59;6.00;58.10
1680;DHT22;838;51.794;12.258;2022-12-07T12:10:37;6.20;58.50
1680;DHT22;838;51.794;12.258;2022-12-07T12:21:07;6.20;53.20
1680;DHT22;838;51.794;12.258;2022-12-07T12:26:01;6.40;53.70
1680;DHT22;838;51.794;12.258;2022-12-07T12:31:06;6.10;54.30
1680;DHT22;838;51.794;12.258;2022-12-07T12:33:33;5.90;53.10
1680;DHT22;838;51.794;12.258;2022-12-07T12:36:22;5.90;54.50
1680;DHT22;838;51.794;12.258;2022-12-07T12:47:04;5.60;53.40
1680;DHT22;838;51.794;12.258;2022-12-07T12:49:32;5.70;54.30
1680;DHT22;838;51.794;12.258;2022-12-07T12:51:59;5.70;54.00
1680;DHT22;838;51.794;12.258;2022-12-07T12:54:33;5.60;54.20
1680;DHT22;838;51.794;12.258;2022-12-07T12:59:32;5.70;53.60
1680;DHT22;838;51.794;12.258;2022-12-07T13:15:55;5.90;50.30
1680;DHT22;838;51.794;12.258;2022-12-07T13:18:40;5.80;49.70
1680;DHT22;838;51.794;12.258;2022-12-07T13:31:55;6.10;51.20
1680;DHT22;838;51.794;12.258;2022-12-07T13:34:29;6.30;48.00
1680;DHT22;838;51.794;12.258;2022-12-07T13:36:56;6.40;48.40
1680;DHT22;838;51.794;12.258;2022-12-07T13:39:25;6.20;48.60
1680;DHT22;838;51.794;12.258;2022-12-07T13:41:58;6.30;49.40
1680;DHT22;838;51.794;12.258;2022-12-07T13:44:27;6.40;47.30
1680;DHT22;838;51.794;12.258;2022-12-07T13:49:25;6.00;49.60
1680;DHT22;838;51.794;12.258;2022-12-07T13:51:52;5.90;52.00
1680;DHT22;838;51.794;12.258;2022-12-07T13:54:18;5.80;51.70
1680;DHT22;838;51.794;12.258;2022-12-07T13:56:49;5.70;52.40
1680;DHT22;838;51.794;12.258;2022-12-07T13:59:21;5.70;50.70
1680;DHT22;838;51.794;12.258;2022-12-07T14:01:49;5.60;50.90
1680;DHT22;838;51.794;12.258;2022-12-07T14:06:49;5.60;51.70
1680;DHT22;838;51.794;12.258;2022-12-07T14:09:24;5.60;51.60
1680;DHT22;838;51.794;12.258;2022-12-07T14:11:52;5.60;50.90
1680;DHT22;838;51.794;12.258;2022-12-07T14:14:28;5.60;49.30
1680;DHT22;838;51.794;12.258;2022-12-07T14:19:45;5.50;52.20
1680;DHT22;838;51.794;12.258;2022-12-07T14:22:31;5.60;51.60
1680;DHT22;838;51.794;12.258;2022-12-07T14:27:39;5.70;51.50
1680;DHT22;838;51.794;12.258;2022-12-07T14:30:06;5.60;51.10
1680;DHT22;838;51.794;12.258;2022-12-07T14:32:34;5.50;52.00
1680;DHT22;838;51.794;12.258;2022-12-07T14:35:11;5.50;53.80
1680;DHT22;838;51.794;12.258;2022-12-07T14:37:38;5.50;54.00
1680;DHT22;838;51.794;12.258;2022-12-07T14:40:05;5.50;54.00
1680;DHT22;838;51.794;12.258;2022-12-07T14:42:32;5.70;52.20
1680;DHT22;838;51.794;12.258;2022-12-07T14:44:58;5.70;50.80
1680;DHT22;838;51.794;12.258;2022-12-07T14:47:25;5.70;50.80
1680;DHT22;838;51.794;12.258;2022-12-07T14:49:52;5.60;49.30
1680;DHT22;838;51.794;12.258;2022-12-07T14:52:22;5.50;50.20
1680;DHT22;838;51.794;12.258;2022-12-07T14:54:48;5.30;51.80
1680;DHT22;838;51.794;12.258;2022-12-07T14:57:14;5.30;53.20
1680;DHT22;838;51.794;12.258;2022-12-07T14:59:40;5.30;54.10
1680;DHT22;838;51.794;12.258;2022-12-07T15:02:06;5.30;53.30
1680;DHT22;838;51.794;12.258;2022-12-07T15:04:34;5.30;52.70
1680;DHT22;838;51.794;12.258;2022-12-07T15:07:06;5.30;53.30
1680;DHT22;838;51.794;12.258;2022-12-07T15:09:34;5.30;53.10
1680;DHT22;838;51.794;12.258;2022-12-07T15:12:00;5.30;53.20
1680;DHT22;838;51.794;12.258;2022-12-07T15:14:25;5.20;54.60
1680;DHT22;838;51.794;12.258;2022-12-07T15:16:51;5.20;54.40
1680;DHT22;838;51.794;12.258;2022-12-07T15:19:24;5.20;56.00
1680;DHT22;838;51.794;12.258;2022-12-07T15:21:52;5.30;55.90
1680;DHT22;838;51.794;12.258;2022-12-07T15:24:18;5.30;55.20
1680;DHT22;838;51.794;12.258;2022-12-07T15:26:44;5.30;55.30
1680;DHT22;838;51.794;12.258;2022-12-07T15:29:10;5.30;56.50
1680;DHT22;838;51.794;12.258;2022-12-07T15:31:37;5.20;57.10
1680;DHT22;838;51.794;12.258;2022-12-07T15:34:03;5.10;57.70
1680;DHT22;838;51.794;12.258;2022-12-07T15:36:31;5.20;58.50
1680;DHT22;838;51.794;12.258;2022-12-07T15:38:57;5.10;59.20
1680;DHT22;838;51.794;12.258;2022-12-07T15:41:26;5.00;59.80
1680;DHT22;838;51.794;12.258;2022-12-07T15:43:52;4.90;60.90
1680;DHT22;838;51.794;12.258;2022-12-07T15:46:39;4.90;59.80
1680;DHT22;838;51.794;12.258;2022-12-07T15:49:18;4.80;59.20
1680;DHT22;838;51.794;12.258;2022-12-07T15:51:45;4.80;59.60
1680;DHT22;838;51.794;12.258;2022-12-07T15:54:15;4.80;59.70
1680;DHT22;838;51.794;12.258;2022-12-07T15:56:41;4.80;58.90
1680;DHT22;838;51.794;12.258;2022-12-07T15:59:07;4.80;58.40
1680;DHT22;838;51.794;12.258;2022-12-07T16:01:32;4.90;56.90
1680;DHT22;838;51.794;12.258;2022-12-07T16:03:58;4.80;56.30
1680;DHT22;838;51.794;12.258;2022-12-07T16:06:24;4.70;56.40
1680;DHT22;838;51.794;12.258;2022-12-07T16:08:50;4.70;57.30
1680;DHT22;838;51.794;12.258;2022-12-07T16:11:16;4.60;57.30
1680;DHT22;838;51.794;12.258;2022-12-07T16:13:42;4.60;57.30
1680;DHT22;838;51.794;12.258;2022-12-07T16:16:11;4.60;57.30
1680;DHT22;838;51.794;12.258;2022-12-07T16:18:38;4.50;58.70
1680;DHT22;838;51.794;12.258;2022-12-07T16:21:03;4.50;58.80
1680;DHT22;838;51.794;12.258;2022-12-07T16:23:30;4.60;56.70
1680;DHT22;838;51.794;12.258;2022-12-07T16:26:04;4.60;56.40
1680;DHT22;838;51.794;12.258;2022-12-07T16:28:30;4.60;56.10
1680;DHT22;838;51.794;12.258;2022-12-07T16:31:14;4.50;57.40
1680;DHT22;838;51.794;12.258;2022-12-07T16:33:41;4.50;57.50
1680;DHT22;838;51.794;12.258;2022-12-07T16:36:09;4.60;57.90
1680;DHT22;838;51.794;12.258;2022-12-07T16:38:36;4.60;56.40
1680;DHT22;838;51.794;12.258;2022-12-07T16:41:02;4.60;58.50
1680;DHT22;838;51.794;12.258;2022-12-07T16:43:28;4.60;58.50
1680;DHT22;838;51.794;12.258;2022-12-07T16:45:54;4.80;56.50
1680;DHT22;838;51.794;12.258;2022-12-07T16:48:19;4.80;56.60
1680;DHT22;838;51.794;12.258;2022-12-07T16:50:45;4.80;55.40
1680;DHT22;838;51.794;12.258;2022-12-07T16:53:13;5.00;55.70
1680;DHT22;838;51.794;12.258;2022-12-07T16:55:44;5.00;53.20
1680;DHT22;838;51.794;12.258;2022-12-07T16:58:12;5.00;54.00
1680;DHT22;838;51.794;12.258;2022-12-07T17:00:39;5.00;54.80
1680;DHT22;838;51.794;12.258;2022-12-07T17:03:04;5.20;55.00
1680;DHT22;838;51.794;12.258;2022-12-07T17:05:30;5.20;53.60
1680;DHT22;838;51.794;12.258;2022-12-07T17:07:56;5.20;53.60
1680;DHT22;838;51.794;12.258;2022-12-07T17:10:23;5.30;52.30
1680;DHT22;838;51.794;12.258;2022-12-07T17:12:50;5.30;52.10
1680;DHT22;838;51.794;12.258;2022-12-07T17:15:17;5.30;50.70
1680;DHT22;838;51.794;12.258;2022-12-07T17:17:51;5.30;51.40
1680;DHT22;838;51.794;12.258;2022-12-07T17:20:17;5.30;51.50
1680;DHT22;838;51.794;12.258;2022-12-07T17:22:43;5.40;50.10
1680;DHT22;838;51.794;12.258;2022-12-07T17:25:09;5.30;51.50
1680;DHT22;838;51.794;12.258;2022-12-07T17:27:35;5.30;51.70
1680;DHT22;838;51.794;12.258;2022-12-07T17:30:02;5.20;51.00
1680;DHT22;838;51.794;12.258;2022-12-07T17:32:28;5.30;50.20
1680;DHT22;838;51.794;12.258;2022-12-07T17:34:53;5.30;51.20
1680;DHT22;838;51.794;12.258;2022-12-07T17:37:19;5.40;51.00
1680;DHT22;838;51.794;12.258;2022-12-07T17:39:45;5.40;49.20
1680;DHT22;838;51.794;12.258;2022-12-07T17:42:11;5.00;50.30
1680;DHT22;838;51.794;12.258;2022-12-07T17:44:55;4.40;54.80
1680;DHT22;838;51.794;12.258;2022-12-07T17:47:21;3.60;60.60
1680;DHT22;838;51.794;12.258;2022-12-07T17:49:47;3.10;66.20
1680;DHT22;838;51.794;12.258;2022-12-07T17:52:14;2.80;70.40
1680;DHT22;838;51.794;12.258;2022-12-07T17:54:58;2.80;73.20
1680;DHT22;838;51.794;12.258;2022-12-07T17:57:24;2.80;75.30
1680;DHT22;838;51.794;12.258;2022-12-07T17:59:50;2.90;76.80
1680;DHT22;838;51.794;12.258;2022-12-07T18:02:17;3.00;74.70
1680;DHT22;838;51.794;12.258;2022-12-07T18:04:43;3.10;73.50
1680;DHT22;838;51.794;12.258;2022-12-07T18:07:10;3.30;72.10
1680;DHT22;838;51.794;12.258;2022-12-07T18:09:36;3.40;71.20
1680;DHT22;838;51.794;12.258;2022-12-07T18:12:02;3.40;68.70
1680;DHT22;838;51.794;12.258;2022-12-07T18:14:28;3.50;70.00
1680;DHT22;838;51.794;12.258;2022-12-07T18:16:54;3.60;66.80
1680;DHT22;838;51.794;12.258;2022-12-07T18:19:19;3.80;64.70
1680;DHT22;838;51.794;12.258;2022-12-07T18:21:46;3.70;64.00
1680;DHT22;838;51.794;12.258;2022-12-07T18:24:13;3.60;63.90
1680;DHT22;838;51.794;12.258;2022-12-07T18:26:40;3.60;65.60
1680;DHT22;838;51.794;12.258;2022-12-07T18:29:07;3.80;66.20
1680;DHT22;838;51.794;12.258;2022-12-07T18:31:34;4.10;63.20
1680;DHT22;838;51.794;12.258;2022-12-07T18:34:02;4.20;59.80
1680;DHT22;838;51.794;12.258;2022-12-07T18:36:29;4.30;58.20